sensor_id;sensor_type;location;lat;lon;timestamp;pressure;altitude;pressure_sealevel;temperature;humidity
19761;BME280;10039;42.632;23.408;2024-02-26T00:00:01;94558.44;;;9.08;77.32
19761;BME280;10039;42.632;23.408;2024-02-26T00:02:27;94573.88;;;8.97;76.97
19761;BME280;10039;42.632;23.408;2024-02-26T00:04:53;94566.09;;;9.06;77.36
19761;BME280;10039;42.632;23.408;2024-02-26T00:07:19;94541.06;;;9.04;76.89
19761;BME280;10039;42.632;23.408;2024-02-26T00:09:44;94536.19;;;9.18;76.66
19761;BME280;10039;42.632;23.408;2024-02-26T00:12:10;94537.00;;;9.15;75.68
19761;BME280;10039;42.632;23.408;2024-02-26T00:14:36;94531.00;;;9.11;75.80
19761;BME280;10039;42.632;23.408;2024-02-26T00:17:05;94560.00;;;9.25;76.15
19761;BME280;10039;42.632;23.408;2024-02-26T00:19:30;94559.66;;;9.23;76.24
19761;BME280;10039;42.632;23.408;2024-02-26T00:21:56;94546.31;;;9.07;76.18
19761;BME280;10039;42.632;23.408;2024-02-26T00:24:22;94518.91;;;8.72;76.98
19761;BME280;10039;42.632;23.408;2024-02-26T00:26:48;94534.44;;;8.92;76.79
19761;BME280;10039;42.632;23.408;2024-02-26T00:29:18;94551.00;;;9.19;76.78
19761;BME280;10039;42.632;23.408;2024-02-26T00:31:45;94552.44;;;9.24;76.76
19761;BME280;10039;42.632;23.408;2024-02-26T00:34:10;94537.56;;;9.26;75.72
19761;BME280;10039;42.632;23.408;2024-02-26T00:36:36;94537.22;;;9.24;75.74
19761;BME280;10039;42.632;23.408;2024-02-26T00:39:02;94530.16;;;9.34;75.95
19761;BME280;10039;42.632;23.408;2024-02-26T00:41:29;94540.19;;;9.46;75.94
19761;BME280;10039;42.632;23.408;2024-02-26T00:43:55;94526.00;;;9.33;75.36
19761;BME280;10039;42.632;23.408;2024-02-26T00:46:20;94505.53;;;9.10;75.38
19761;BME280;10039;42.632;23.408;2024-02-26T00:48:46;94523.19;;;9.40;75.44
19761;BME280;10039;42.632;23.408;2024-02-26T00:51:12;94541.09;;;9.39;75.37
19761;BME280;10039;42.632;23.408;2024-02-26T00:53:38;94535.97;;;9.29;75.29
19761;BME280;10039;42.632;23.408;2024-02-26T00:56:03;94526.56;;;9.24;75.66
19761;BME280;10039;42.632;23.408;2024-02-26T00:58:29;94522.94;;;9.34;75.87
19761;BME280;10039;42.632;23.408;2024-02-26T01:00:55;94522.09;;;9.37;75.63
19761;BME280;10039;42.632;23.408;2024-02-26T01:03:20;94517.13;;;9.39;75.22
19761;BME280;10039;42.632;23.408;2024-02-26T01:05:47;94501.44;;;9.25;75.25
19761;BME280;10039;42.632;23.408;2024-02-26T01:08:12;94503.72;;;9.43;74.95
19761;BME280;10039;42.632;23.408;2024-02-26T01:10:38;94517.38;;;9.45;74.89
19761;BME280;10039;42.632;23.408;2024-02-26T01:13:04;94471.38;;;9.25;75.21
19761;BME280;10039;42.632;23.408;2024-02-26T01:15:30;94512.63;;;9.36;75.27
19761;BME280;10039;42.632;23.408;2024-02-26T01:17:55;94515.81;;;9.28;75.79
19761;BME280;10039;42.632;23.408;2024-02-26T01:20:21;94516.38;;;9.19;76.33
19761;BME280;10039;42.632;23.408;2024-02-26T01:22:47;94501.91;;;9.20;76.41
19761;BME280;10039;42.632;23.408;2024-02-26T01:25:13;94507.19;;;9.24;76.06
19761;BME280;10039;42.632;23.408;2024-02-26T01:27:39;94507.28;;;9.36;76.16
19761;BME280;10039;42.632;23.408;2024-02-26T01:30:07;94499.66;;;9.38;75.86
19761;BME280;10039;42.632;23.408;2024-02-26T01:32:33;94470.41;;;9.19;75.50
19761;BME280;10039;42.632;23.408;2024-02-26T01:34:58;94496.06;;;9.45;75.09
19761;BME280;10039;42.632;23.408;2024-02-26T01:37:25;94504.81;;;9.61;75.47
19761;BME280;10039;42.632;23.408;2024-02-26T01:39:51;94492.28;;;9.42;75.48
19761;BME280;10039;42.632;23.408;2024-02-26T01:42:16;94490.97;;;9.34;75.19
19761;BME280;10039;42.632;23.408;2024-02-26T01:44:42;94469.97;;;9.20;75.62
19761;BME280;10039;42.632;23.408;2024-02-26T01:47:10;94497.41;;;9.53;75.18
19761;BME280;10039;42.632;23.408;2024-02-26T01:49:37;94493.66;;;9.50;75.67
19761;BME280;10039;42.632;23.408;2024-02-26T01:52:06;94500.13;;;9.33;76.44
19761;BME280;10039;42.632;23.408;2024-02-26T01:54:37;94450.31;;;9.14;76.11
19761;BME280;10039;42.632;23.408;2024-02-26T01:57:05;94497.56;;;9.46;75.77
19761;BME280;10039;42.632;23.408;2024-02-26T01:59:32;94488.81;;;9.45;75.53
19761;BME280;10039;42.632;23.408;2024-02-26T02:02:01;94485.22;;;9.36;76.27
19761;BME280;10039;42.632;23.408;2024-02-26T02:04:29;94484.97;;;9.30;76.03
19761;BME280;10039;42.632;23.408;2024-02-26T02:07:13;94489.84;;;9.16;76.75
19761;BME280;10039;42.632;23.408;2024-02-26T02:09:39;94483.28;;;9.20;77.25
19761;BME280;10039;42.632;23.408;2024-02-26T02:12:05;94450.56;;;9.04;76.79
19761;BME280;10039;42.632;23.408;2024-02-26T02:14:31;94446.75;;;9.05;76.42
19761;BME280;10039;42.632;23.408;2024-02-26T02:16:57;94483.31;;;9.36;76.16
19761;BME280;10039;42.632;23.408;2024-02-26T02:19:23;94462.19;;;9.29;75.97
19761;BME280;10039;42.632;23.408;2024-02-26T02:21:49;94491.63;;;9.22;76.58
19761;BME280;10039;42.632;23.408;2024-02-26T02:24:14;94490.44;;;9.23;76.91
19761;BME280;10039;42.632;23.408;2024-02-26T02:26:40;94458.06;;;8.74;76.74
19761;BME280;10039;42.632;23.408;2024-02-26T02:29:07;94493.97;;;9.01;77.16
19761;BME280;10039;42.632;23.408;2024-02-26T02:31:32;94480.19;;;9.06;77.23
19761;BME280;10039;42.632;23.408;2024-02-26T02:33:58;94480.41;;;8.95;77.05
19761;BME280;10039;42.632;23.408;2024-02-26T02:36:28;94468.94;;;8.98;76.19
19761;BME280;10039;42.632;23.408;2024-02-26T02:38:54;94465.34;;;8.89;76.85
19761;BME280;10039;42.632;23.408;2024-02-26T02:41:20;94508.41;;;9.19;76.33
19761;BME280;10039;42.632;23.408;2024-02-26T02:43:46;94502.16;;;9.10;76.99
19761;BME280;10039;42.632;23.408;2024-02-26T02:46:12;94463.63;;;8.79;77.37
19761;BME280;10039;42.632;23.408;2024-02-26T02:48:38;94497.38;;;9.01;77.06
19761;BME280;10039;42.632;23.408;2024-02-26T02:51:04;94504.28;;;8.99;77.45
19761;BME280;10039;42.632;23.408;2024-02-26T02:53:30;94504.91;;;9.06;77.26
19761;BME280;10039;42.632;23.408;2024-02-26T02:55:56;94493.56;;;9.02;77.89
19761;BME280;10039;42.632;23.408;2024-02-26T02:58:22;94487.44;;;8.86;77.15
19761;BME280;10039;42.632;23.408;2024-02-26T03:00:48;94487.38;;;8.89;77.34
19761;BME280;10039;42.632;23.408;2024-02-26T03:03:13;94477.69;;;8.80;77.51
19761;BME280;10039;42.632;23.408;2024-02-26T03:05:40;94483.00;;;8.80;77.54
19761;BME280;10039;42.632;23.408;2024-02-26T03:08:05;94499.03;;;8.76;78.08
19761;BME280;10039;42.632;23.408;2024-02-26T03:10:31;94492.31;;;8.72;77.74
19761;BME280;10039;42.632;23.408;2024-02-26T03:12:57;94511.78;;;8.85;77.91
19761;BME280;10039;42.632;23.408;2024-02-26T03:15:23;94492.34;;;8.88;78.54
19761;BME280;10039;42.632;23.408;2024-02-26T03:17:49;94498.69;;;8.93;78.31
19761;BME280;10039;42.632;23.408;2024-02-26T03:20:14;94501.56;;;9.02;78.09
19761;BME280;10039;42.632;23.408;2024-02-26T03:22:40;94495.47;;;9.02;77.56
19761;BME280;10039;42.632;23.408;2024-02-26T03:25:06;94505.78;;;9.00;77.70
19761;BME280;10039;42.632;23.408;2024-02-26T03:27:33;94489.53;;;8.94;77.70
19761;BME280;10039;42.632;23.408;2024-02-26T03:29:58;94489.63;;;8.91;77.89
19761;BME280;10039;42.632;23.408;2024-02-26T03:32:24;94467.25;;;8.69;78.06
19761;BME280;10039;42.632;23.408;2024-02-26T03:34:50;94478.31;;;8.87;78.22
19761;BME280;10039;42.632;23.408;2024-02-26T03:37:19;94478.56;;;8.92;78.04
19761;BME280;10039;42.632;23.408;2024-02-26T03:39:45;94480.16;;;8.90;77.91
19761;BME280;10039;42.632;23.408;2024-02-26T03:42:11;94490.09;;;8.86;78.06
19761;BME280;10039;42.632;23.408;2024-02-26T03:44:37;94470.38;;;8.84;78.10
19761;BME280;10039;42.632;23.408;2024-02-26T03:47:21;94472.34;;;8.80;78.42
19761;BME280;10039;42.632;23.408;2024-02-26T03:49:47;94466.22;;;8.83;78.30
19761;BME280;10039;42.632;23.408;2024-02-26T03:52:13;94462.47;;;8.99;78.29
19761;BME280;10039;42.632;23.408;2024-02-26T03:54:38;94447.56;;;9.02;77.15
19761;BME280;10039;42.632;23.408;2024-02-26T03:57:04;94476.41;;;9.39;76.53
19761;BME280;10039;42.632;23.408;2024-02-26T03:59:30;94453.19;;;9.23;76.07
19761;BME280;10039;42.632;23.408;2024-02-26T04:01:56;94452.25;;;9.30;75.32
19761;BME280;10039;42.632;23.408;2024-02-26T04:04:22;94437.38;;;9.32;75.13
19761;BME280;10039;42.632;23.408;2024-02-26T04:06:48;94473.09;;;9.51;75.56
19761;BME280;10039;42.632;23.408;2024-02-26T04:09:16;94439.13;;;9.39;74.56
19761;BME280;10039;42.632;23.408;2024-02-26T04:11:42;94452.47;;;9.55;74.13
19761;BME280;10039;42.632;23.408;2024-02-26T04:14:10;94483.84;;;9.63;73.93
19761;BME280;10039;42.632;23.408;2024-02-26T04:16:38;94458.38;;;9.62;74.28
19761;BME280;10039;42.632;23.408;2024-02-26T04:19:04;94463.53;;;9.69;74.03
19761;BME280;10039;42.632;23.408;2024-02-26T04:21:29;94460.59;;;9.64;74.36
19761;BME280;10039;42.632;23.408;2024-02-26T04:23:55;94472.03;;;9.64;74.28
19761;BME280;10039;42.632;23.408;2024-02-26T04:26:21;94445.03;;;9.46;74.01
19761;BME280;10039;42.632;23.408;2024-02-26T04:28:47;94465.03;;;9.70;73.55
19761;BME280;10039;42.632;23.408;2024-02-26T04:31:12;94456.72;;;9.68;73.51
19761;BME280;10039;42.632;23.408;2024-02-26T04:33:38;94426.59;;;9.39;73.64
19761;BME280;10039;42.632;23.408;2024-02-26T04:36:04;94423.16;;;9.23;74.15
19761;BME280;10039;42.632;23.408;2024-02-26T04:38:30;94463.00;;;9.42;74.48
19761;BME280;10039;42.632;23.408;2024-02-26T04:40:55;94445.22;;;9.39;74.55
19761;BME280;10039;42.632;23.408;2024-02-26T04:43:21;94458.88;;;9.57;74.26
19761;BME280;10039;42.632;23.408;2024-02-26T04:45:47;94464.63;;;9.56;74.25
19761;BME280;10039;42.632;23.408;2024-02-26T04:48:13;94457.78;;;9.39;73.91
19761;BME280;10039;42.632;23.408;2024-02-26T04:50:39;94469.69;;;9.34;74.22
19761;BME280;10039;42.632;23.408;2024-02-26T04:53:05;94446.50;;;9.15;74.83
19761;BME280;10039;42.632;23.408;2024-02-26T04:55:30;94464.25;;;9.38;75.03
19761;BME280;10039;42.632;23.408;2024-02-26T04:57:56;94453.03;;;8.95;75.14
19761;BME280;10039;42.632;23.408;2024-02-26T05:00:22;94463.84;;;8.88;75.99
19761;BME280;10039;42.632;23.408;2024-02-26T05:02:48;94459.94;;;8.92;75.58
19761;BME280;10039;42.632;23.408;2024-02-26T05:05:14;94491.63;;;9.22;75.83
19761;BME280;10039;42.632;23.408;2024-02-26T05:07:40;94458.50;;;9.07;75.44
19761;BME280;10039;42.632;23.408;2024-02-26T05:10:07;94471.72;;;9.11;75.50
19761;BME280;10039;42.632;23.408;2024-02-26T05:12:33;94490.03;;;9.25;75.23
19761;BME280;10039;42.632;23.408;2024-02-26T05:15:01;94482.28;;;9.14;74.93
19761;BME280;10039;42.632;23.408;2024-02-26T05:17:27;94486.91;;;9.10;75.53
19761;BME280;10039;42.632;23.408;2024-02-26T05:19:53;94490.59;;;9.16;75.25
19761;BME280;10039;42.632;23.408;2024-02-26T05:22:19;94512.44;;;9.27;75.54
19761;BME280;10039;42.632;23.408;2024-02-26T05:24:45;94477.94;;;9.04;75.23
19761;BME280;10039;42.632;23.408;2024-02-26T05:27:10;94477.03;;;9.11;75.23
19761;BME280;10039;42.632;23.408;2024-02-26T05:29:37;94470.50;;;8.96;75.92
19761;BME280;10039;42.632;23.408;2024-02-26T05:32:04;94518.09;;;9.29;75.39
19761;BME280;10039;42.632;23.408;2024-02-26T05:34:30;94511.59;;;9.30;75.28
19761;BME280;10039;42.632;23.408;2024-02-26T05:36:56;94487.69;;;9.11;75.38
19761;BME280;10039;42.632;23.408;2024-02-26T05:39:21;94513.94;;;9.28;75.88
19761;BME280;10039;42.632;23.408;2024-02-26T05:41:47;94526.91;;;9.26;76.05
19761;BME280;10039;42.632;23.408;2024-02-26T05:44:14;94531.16;;;9.24;76.42
19761;BME280;10039;42.632;23.408;2024-02-26T05:46:41;94533.72;;;9.27;76.12
19761;BME280;10039;42.632;23.408;2024-02-26T05:49:07;94533.03;;;9.23;76.72
19761;BME280;10039;42.632;23.408;2024-02-26T05:51:33;94520.69;;;9.13;76.68
19761;BME280;10039;42.632;23.408;2024-02-26T05:53:59;94522.41;;;9.23;76.77
19761;BME280;10039;42.632;23.408;2024-02-26T05:56:25;94529.47;;;9.30;77.04
19761;BME280;10039;42.632;23.408;2024-02-26T05:58:50;94523.22;;;9.20;76.77
19761;BME280;10039;42.632;23.408;2024-02-26T06:01:17;94541.09;;;9.39;76.35
19761;BME280;10039;42.632;23.408;2024-02-26T06:03:43;94551.56;;;9.46;76.44
19761;BME280;10039;42.632;23.408;2024-02-26T06:06:10;94540.84;;;9.50;76.10
19761;BME280;10039;42.632;23.408;2024-02-26T06:08:36;94537.91;;;9.44;75.33
19761;BME280;10039;42.632;23.408;2024-02-26T06:11:10;94536.25;;;9.50;75.44
19761;BME280;10039;42.632;23.408;2024-02-26T06:13:36;94506.69;;;9.29;75.63
19761;BME280;10039;42.632;23.408;2024-02-26T06:16:02;94516.59;;;9.44;75.12
19761;BME280;10039;42.632;23.408;2024-02-26T06:18:28;94518.78;;;9.49;74.38
19761;BME280;10039;42.632;23.408;2024-02-26T06:20:53;94535.47;;;9.69;74.33
19761;BME280;10039;42.632;23.408;2024-02-26T06:23:20;94539.03;;;9.63;74.12
19761;BME280;10039;42.632;23.408;2024-02-26T06:25:45;94539.44;;;9.77;74.19
19761;BME280;10039;42.632;23.408;2024-02-26T06:28:13;94542.72;;;9.85;73.84
19761;BME280;10039;42.632;23.408;2024-02-26T06:30:39;94527.63;;;9.62;73.78
19761;BME280;10039;42.632;23.408;2024-02-26T06:33:05;94533.22;;;9.84;73.89
19761;BME280;10039;42.632;23.408;2024-02-26T06:35:30;94529.97;;;9.76;73.94
19761;BME280;10039;42.632;23.408;2024-02-26T06:37:56;94507.47;;;9.61;73.98
19761;BME280;10039;42.632;23.408;2024-02-26T06:40:22;94526.56;;;9.76;74.61
19761;BME280;10039;42.632;23.408;2024-02-26T06:42:47;94527.22;;;9.80;74.59
19761;BME280;10039;42.632;23.408;2024-02-26T06:45:13;94549.38;;;9.93;74.77
19761;BME280;10039;42.632;23.408;2024-02-26T06:47:39;94543.97;;;9.96;74.88
19761;BME280;10039;42.632;23.408;2024-02-26T06:50:05;94548.31;;;9.90;75.07
19761;BME280;10039;42.632;23.408;2024-02-26T06:52:31;94547.13;;;9.91;75.30
19761;BME280;10039;42.632;23.408;2024-02-26T06:54:57;94536.13;;;9.89;75.05
19761;BME280;10039;42.632;23.408;2024-02-26T06:57:22;94508.31;;;9.74;75.05
19761;BME280;10039;42.632;23.408;2024-02-26T06:59:49;94536.81;;;9.93;75.13
19761;BME280;10039;42.632;23.408;2024-02-26T07:02:15;94527.81;;;9.87;75.42
19761;BME280;10039;42.632;23.408;2024-02-26T07:04:42;94535.97;;;9.96;75.16
19761;BME280;10039;42.632;23.408;2024-02-26T07:07:08;94550.81;;;10.13;74.91
19761;BME280;10039;42.632;23.408;2024-02-26T07:09:34;94538.81;;;10.05;75.04
19761;BME280;10039;42.632;23.408;2024-02-26T07:11:59;94559.97;;;10.12;75.11
19761;BME280;10039;42.632;23.408;2024-02-26T07:14:25;94543.50;;;10.01;75.34
19761;BME280;10039;42.632;23.408;2024-02-26T07:16:51;94562.16;;;10.17;75.38
19761;BME280;10039;42.632;23.408;2024-02-26T07:19:17;94564.91;;;10.29;75.09
19761;BME280;10039;42.632;23.408;2024-02-26T07:21:43;94527.91;;;10.15;74.65
19761;BME280;10039;42.632;23.408;2024-02-26T07:24:09;94549.31;;;10.28;74.57
19761;BME280;10039;42.632;23.408;2024-02-26T07:26:34;94567.88;;;10.47;74.32
19761;BME280;10039;42.632;23.408;2024-02-26T07:29:00;94566.63;;;10.52;73.87
19761;BME280;10039;42.632;23.408;2024-02-26T07:31:26;94544.66;;;10.60;73.76
19761;BME280;10039;42.632;23.408;2024-02-26T07:33:52;94553.72;;;10.79;73.36
19761;BME280;10039;42.632;23.408;2024-02-26T07:36:18;94535.78;;;10.79;73.12
19761;BME280;10039;42.632;23.408;2024-02-26T07:38:43;94560.94;;;10.94;73.28
19761;BME280;10039;42.632;23.408;2024-02-26T07:41:10;94574.19;;;10.98;73.71
19761;BME280;10039;42.632;23.408;2024-02-26T07:43:35;94557.19;;;10.92;73.72
19761;BME280;10039;42.632;23.408;2024-02-26T07:46:01;94566.69;;;10.93;74.38
19761;BME280;10039;42.632;23.408;2024-02-26T07:48:27;94528.25;;;10.62;74.58
19761;BME280;10039;42.632;23.408;2024-02-26T07:50:53;94578.78;;;10.97;74.35
19761;BME280;10039;42.632;23.408;2024-02-26T07:53:19;94557.88;;;11.08;73.83
19761;BME280;10039;42.632;23.408;2024-02-26T07:55:45;94561.56;;;11.26;73.66
19761;BME280;10039;42.632;23.408;2024-02-26T07:58:11;94563.09;;;11.40;72.90
19761;BME280;10039;42.632;23.408;2024-02-26T08:00:36;94559.13;;;11.44;72.38
19761;BME280;10039;42.632;23.408;2024-02-26T08:03:02;94559.81;;;11.61;71.73
19761;BME280;10039;42.632;23.408;2024-02-26T08:05:28;94541.88;;;11.61;71.38
19761;BME280;10039;42.632;23.408;2024-02-26T08:07:54;94550.19;;;11.63;70.40
19761;BME280;10039;42.632;23.408;2024-02-26T08:10:20;94525.69;;;11.52;70.26
19761;BME280;10039;42.632;23.408;2024-02-26T08:12:46;94551.38;;;11.75;69.55
19761;BME280;10039;42.632;23.408;2024-02-26T08:15:11;94545.72;;;11.85;69.68
19761;BME280;10039;42.632;23.408;2024-02-26T08:17:37;94544.94;;;11.97;69.64
19761;BME280;10039;42.632;23.408;2024-02-26T08:20:04;94531.03;;;12.02;68.89
19761;BME280;10039;42.632;23.408;2024-02-26T08:22:30;94515.63;;;12.06;68.50
19761;BME280;10039;42.632;23.408;2024-02-26T08:24:55;94540.16;;;11.92;67.32
19761;BME280;10039;42.632;23.408;2024-02-26T08:27:21;94534.25;;;11.97;67.30
19761;BME280;10039;42.632;23.408;2024-02-26T08:29:47;94544.94;;;12.22;67.06
19761;BME280;10039;42.632;23.408;2024-02-26T08:32:12;94540.84;;;12.18;67.05
19761;BME280;10039;42.632;23.408;2024-02-26T08:34:38;94550.03;;;12.41;67.71
19761;BME280;10039;42.632;23.408;2024-02-26T08:37:05;94539.59;;;12.56;67.41
19761;BME280;10039;42.632;23.408;2024-02-26T08:39:31;94539.97;;;12.67;67.54
19761;BME280;10039;42.632;23.408;2024-02-26T08:41:57;94540.06;;;12.76;67.13
19761;BME280;10039;42.632;23.408;2024-02-26T08:44:22;94535.06;;;12.65;66.03
19761;BME280;10039;42.632;23.408;2024-02-26T08:46:48;94542.81;;;12.85;66.15
19761;BME280;10039;42.632;23.408;2024-02-26T08:49:16;94541.84;;;12.91;65.60
19761;BME280;10039;42.632;23.408;2024-02-26T08:51:42;94536.59;;;12.88;65.53
19761;BME280;10039;42.632;23.408;2024-02-26T08:54:09;94538.59;;;12.96;65.52
19761;BME280;10039;42.632;23.408;2024-02-26T08:56:34;94546.19;;;12.98;65.40
19761;BME280;10039;42.632;23.408;2024-02-26T08:59:00;94531.22;;;12.88;65.23
19761;BME280;10039;42.632;23.408;2024-02-26T09:01:29;94548.72;;;13.14;65.19
19761;BME280;10039;42.632;23.408;2024-02-26T09:03:55;94544.84;;;13.15;65.12
19761;BME280;10039;42.632;23.408;2024-02-26T09:06:21;94544.28;;;13.20;64.57
19761;BME280;10039;42.632;23.408;2024-02-26T09:08:47;94548.06;;;13.31;64.44
19761;BME280;10039;42.632;23.408;2024-02-26T09:11:13;94534.69;;;13.40;64.33
19761;BME280;10039;42.632;23.408;2024-02-26T09:13:38;94541.75;;;13.46;63.60
19761;BME280;10039;42.632;23.408;2024-02-26T09:16:05;94535.72;;;13.34;63.25
19761;BME280;10039;42.632;23.408;2024-02-26T09:18:31;94532.16;;;13.37;63.72
19761;BME280;10039;42.632;23.408;2024-02-26T09:20:56;94532.78;;;13.41;64.06
19761;BME280;10039;42.632;23.408;2024-02-26T09:23:22;94540.56;;;13.47;63.02
19761;BME280;10039;42.632;23.408;2024-02-26T09:25:47;94511.53;;;13.25;62.89
19761;BME280;10039;42.632;23.408;2024-02-26T09:28:13;94527.91;;;13.48;63.26
19761;BME280;10039;42.632;23.408;2024-02-26T09:30:40;94514.97;;;13.55;63.30
19761;BME280;10039;42.632;23.408;2024-02-26T09:33:06;94522.72;;;13.53;62.91
19761;BME280;10039;42.632;23.408;2024-02-26T09:35:32;94519.47;;;13.58;62.87
19761;BME280;10039;42.632;23.408;2024-02-26T09:37:57;94503.66;;;13.51;63.16
19761;BME280;10039;42.632;23.408;2024-02-26T09:40:23;94512.00;;;13.53;62.80
19761;BME280;10039;42.632;23.408;2024-02-26T09:42:53;94497.22;;;13.49;62.81
19761;BME280;10039;42.632;23.408;2024-02-26T09:45:22;94485.31;;;13.50;61.56
19761;BME280;10039;42.632;23.408;2024-02-26T09:47:50;94507.59;;;13.68;62.28
19761;BME280;10039;42.632;23.408;2024-02-26T09:50:17;94518.06;;;13.75;62.16
19761;BME280;10039;42.632;23.408;2024-02-26T09:52:43;94517.06;;;13.91;61.90
19761;BME280;10039;42.632;23.408;2024-02-26T09:55:10;94480.03;;;13.68;61.67
19761;BME280;10039;42.632;23.408;2024-02-26T09:57:44;94511.81;;;13.87;61.23
19761;BME280;10039;42.632;23.408;2024-02-26T10:00:17;94514.84;;;13.98;61.64
19761;BME280;10039;42.632;23.408;2024-02-26T10:02:45;94499.78;;;13.92;60.80
19761;BME280;10039;42.632;23.408;2024-02-26T10:05:12;94512.69;;;14.15;60.92
19761;BME280;10039;42.632;23.408;2024-02-26T10:07:40;94489.81;;;14.01;61.06
19761;BME280;10039;42.632;23.408;2024-02-26T10:10:08;94491.38;;;14.20;60.80
19761;BME280;10039;42.632;23.408;2024-02-26T10:12:34;94508.69;;;14.37;60.34
19761;BME280;10039;42.632;23.408;2024-02-26T10:14:59;94515.56;;;14.38;60.06
19761;BME280;10039;42.632;23.408;2024-02-26T10:17:25;94516.19;;;14.42;60.47
19761;BME280;10039;42.632;23.408;2024-02-26T10:19:51;94503.47;;;14.25;60.66
19761;BME280;10039;42.632;23.408;2024-02-26T10:22:22;94485.44;;;14.34;60.61
19761;BME280;10039;42.632;23.408;2024-02-26T10:24:47;94493.78;;;14.36;59.69
19761;BME280;10039;42.632;23.408;2024-02-26T10:27:15;94478.56;;;14.24;59.51
19761;BME280;10039;42.632;23.408;2024-02-26T10:29:40;94489.31;;;14.42;59.75
19761;BME280;10039;42.632;23.408;2024-02-26T10:32:09;94472.16;;;14.40;59.58
19761;BME280;10039;42.632;23.408;2024-02-26T10:34:35;94489.91;;;14.64;59.77
19761;BME280;10039;42.632;23.408;2024-02-26T10:37:05;94476.63;;;14.69;59.12
19761;BME280;10039;42.632;23.408;2024-02-26T10:39:30;94462.47;;;14.51;58.51
19761;BME280;10039;42.632;23.408;2024-02-26T10:41:56;94478.28;;;14.67;58.75
19761;BME280;10039;42.632;23.408;2024-02-26T10:44:21;94472.78;;;14.61;58.88
19761;BME280;10039;42.632;23.408;2024-02-26T10:46:48;94472.91;;;14.76;58.89
19761;BME280;10039;42.632;23.408;2024-02-26T10:49:17;94479.91;;;14.73;58.29
19761;BME280;10039;42.632;23.408;2024-02-26T10:51:45;94471.13;;;14.73;58.19
19761;BME280;10039;42.632;23.408;2024-02-26T10:54:16;94442.47;;;14.61;57.93
19761;BME280;10039;42.632;23.408;2024-02-26T10:56:42;94452.31;;;14.73;57.91
19761;BME280;10039;42.632;23.408;2024-02-26T10:59:11;94445.75;;;14.74;58.12
19761;BME280;10039;42.632;23.408;2024-02-26T11:01:38;94436.50;;;14.75;57.77
19761;BME280;10039;42.632;23.408;2024-02-26T11:04:06;94455.13;;;14.87;57.80
19761;BME280;10039;42.632;23.408;2024-02-26T11:06:36;94432.75;;;14.72;57.59
19761;BME280;10039;42.632;23.408;2024-02-26T11:09:02;94428.44;;;14.66;57.48
19761;BME280;10039;42.632;23.408;2024-02-26T11:11:32;94448.13;;;14.81;57.66
19761;BME280;10039;42.632;23.408;2024-02-26T11:14:01;94447.97;;;14.93;57.59
19761;BME280;10039;42.632;23.408;2024-02-26T11:16:27;94427.84;;;14.80;57.61
19761;BME280;10039;42.632;23.408;2024-02-26T11:18:53;94433.34;;;14.76;57.74
19761;BME280;10039;42.632;23.408;2024-02-26T11:21:21;94454.06;;;15.03;57.99
19761;BME280;10039;42.632;23.408;2024-02-26T11:24:06;94442.13;;;15.04;57.55
19761;BME280;10039;42.632;23.408;2024-02-26T11:26:35;94448.22;;;15.04;57.48
19761;BME280;10039;42.632;23.408;2024-02-26T11:29:02;94445.81;;;15.15;57.33
19761;BME280;10039;42.632;23.408;2024-02-26T11:31:29;94444.94;;;15.00;56.65
19761;BME280;10039;42.632;23.408;2024-02-26T11:33:56;94442.13;;;15.04;57.29
19761;BME280;10039;42.632;23.408;2024-02-26T11:36:23;94439.44;;;15.04;56.92
19761;BME280;10039;42.632;23.408;2024-02-26T11:38:49;94440.34;;;14.92;56.54
19761;BME280;10039;42.632;23.408;2024-02-26T11:41:18;94423.00;;;15.02;57.26
19761;BME280;10039;42.632;23.408;2024-02-26T11:43:51;94399.16;;;14.86;56.99
19761;BME280;10039;42.632;23.408;2024-02-26T11:46:28;94435.19;;;15.21;56.39
19761;BME280;10039;42.632;23.408;2024-02-26T11:49:03;94428.06;;;15.09;56.77
19761;BME280;10039;42.632;23.408;2024-02-26T11:51:51;94428.69;;;15.04;56.31
19761;BME280;10039;42.632;23.408;2024-02-26T11:57:38;94426.13;;;15.09;55.46
19761;BME280;10039;42.632;23.408;2024-02-26T12:02:49;94419.31;;;14.90;56.52
19761;BME280;10039;42.632;23.408;2024-02-26T12:05:17;94424.03;;;15.13;56.21
19761;BME280;10039;42.632;23.408;2024-02-26T12:07:48;94385.69;;;14.95;56.09
19761;BME280;10039;42.632;23.408;2024-02-26T12:12:47;94394.97;;;14.85;55.72
19761;BME280;10039;42.632;23.408;2024-02-26T12:15:15;94422.34;;;15.25;54.04
19761;BME280;10039;42.632;23.408;2024-02-26T12:17:41;94396.81;;;15.20;53.64
19761;BME280;10039;42.632;23.408;2024-02-26T12:20:13;94436.31;;;15.47;54.63
19761;BME280;10039;42.632;23.408;2024-02-26T12:22:39;94417.06;;;15.48;53.95
19761;BME280;10039;42.632;23.408;2024-02-26T12:25:08;94439.16;;;15.52;53.08
19761;BME280;10039;42.632;23.408;2024-02-26T12:27:34;94414.88;;;15.38;54.09
19761;BME280;10039;42.632;23.408;2024-02-26T12:30:01;94434.16;;;15.69;52.76
19761;BME280;10039;42.632;23.408;2024-02-26T12:32:28;94438.34;;;15.70;52.70
19761;BME280;10039;42.632;23.408;2024-02-26T12:34:53;94409.41;;;15.56;52.52
19761;BME280;10039;42.632;23.408;2024-02-26T12:37:19;94445.09;;;15.88;53.37
19761;BME280;10039;42.632;23.408;2024-02-26T12:39:45;94426.88;;;15.83;51.80
19761;BME280;10039;42.632;23.408;2024-02-26T12:42:11;94435.03;;;15.98;52.24
19761;BME280;10039;42.632;23.408;2024-02-26T12:44:37;94432.19;;;16.01;52.01
19761;BME280;10039;42.632;23.408;2024-02-26T12:47:04;94406.44;;;15.77;52.20
19761;BME280;10039;42.632;23.408;2024-02-26T12:49:30;94418.53;;;15.81;52.22
19761;BME280;10039;42.632;23.408;2024-02-26T12:51:56;94407.72;;;15.90;52.57
19761;BME280;10039;42.632;23.408;2024-02-26T12:54:29;94432.41;;;15.89;51.20
19761;BME280;10039;42.632;23.408;2024-02-26T12:56:57;94413.50;;;15.74;51.07
19761;BME280;10039;42.632;23.408;2024-02-26T12:59:23;94424.16;;;15.92;51.61